createdAt,value
2022-12-22T00:02:00.637Z,7.90
2022-12-22T00:04:46.210Z,7.90
2022-12-22T00:07:31.974Z,7.90
2022-12-22T00:10:17.315Z,7.90
2022-12-22T00:13:03.083Z,7.90
2022-12-22T00:15:53.403Z,7.90
2022-12-22T00:18:39.515Z,7.90
2022-12-22T00:21:25.330Z,7.90
2022-12-22T00:24:10.814Z,7.90
2022-12-22T00:26:56.323Z,7.90
2022-12-22T00:29:42.084Z,7.90
2022-12-22T00:32:32.570Z,7.90
2022-12-22T00:35:21.682Z,7.90
2022-12-22T00:38:10.408Z,7.90
2022-12-22T00:40:55.888Z,8.00
2022-12-22T00:43:41.355Z,8.00
2022-12-22T00:46:31.307Z,8.00
2022-12-22T00:49:18.976Z,8.00
2022-12-22T00:52:05.115Z,8.00
2022-12-22T00:54:51.301Z,8.00
2022-12-22T00:57:38.281Z,8.00
2022-12-22T01:00:25.386Z,8.00
2022-12-22T01:03:10.981Z,8.00
2022-12-22T01:05:57.939Z,8.00
2022-12-22T01:08:43.410Z,8.00
2022-12-22T01:11:28.843Z,8.00
2022-12-22T01:14:14.238Z,8.00
2022-12-22T01:17:00.024Z,8.00
2022-12-22T01:19:45.359Z,8.00
2022-12-22T01:22:35.622Z,8.10
2022-12-22T01:25:21.107Z,8.10
2022-12-22T01:28:06.554Z,8.10
2022-12-22T01:30:52.119Z,8.10
2022-12-22T01:33:37.685Z,8.10
2022-12-22T01:36:24.040Z,8.10
2022-12-22T01:39:11.192Z,8.10
2022-12-22T01:41:57.168Z,8.10
2022-12-22T01:44:43.028Z,8.10
2022-12-22T01:47:53.359Z,8.10
2022-12-22T01:50:47.311Z,8.10
2022-12-22T01:53:36.716Z,8.10
2022-12-22T01:56:24.879Z,8.10
2022-12-22T01:59:13.394Z,8.10
2022-12-22T02:02:00.253Z,8.10
2022-12-22T02:04:50.818Z,8.10
2022-12-22T02:07:59.260Z,8.10
2022-12-22T02:11:03.007Z,8.10
2022-12-22T02:13:58.277Z,8.10
2022-12-22T02:16:50.259Z,8.10
2022-12-22T02:20:00.360Z,8.10
2022-12-22T02:22:53.592Z,8.20
2022-12-22T02:25:47.237Z,8.10
2022-12-22T02:28:34.506Z,8.20
2022-12-22T02:31:20.265Z,8.20
2022-12-22T02:34:06.135Z,8.20
2022-12-22T02:37:09.533Z,8.20
2022-12-22T02:40:01.618Z,8.20
2022-12-22T02:42:53.190Z,8.20
2022-12-22T02:45:47.292Z,8.20
2022-12-22T02:48:40.092Z,8.20
2022-12-22T02:51:30.180Z,8.20
2022-12-22T02:54:16.652Z,8.30
2022-12-22T02:57:02.859Z,8.20
2022-12-22T02:59:48.327Z,8.30
2022-12-22T03:02:35.816Z,8.20
2022-12-22T03:05:21.941Z,8.30
2022-12-22T03:08:08.700Z,8.30
2022-12-22T03:10:54.397Z,8.30
2022-12-22T03:13:39.760Z,8.30
2022-12-22T03:16:25.163Z,8.30
2022-12-22T03:19:11.977Z,8.30
2022-12-22T03:21:57.793Z,8.30
2022-12-22T03:24:43.385Z,8.30
2022-12-22T03:27:11.562Z,8.30
2022-12-22T03:29:39.868Z,8.30
2022-12-22T03:32:08.010Z,8.30
2022-12-22T03:34:37.513Z,8.20
2022-12-22T03:37:05.581Z,8.30
2022-12-22T03:39:33.737Z,8.30
2022-12-22T03:42:19.026Z,8.30
2022-12-22T03:45:04.507Z,8.40
2022-12-22T03:47:32.946Z,8.30
2022-12-22T03:50:02.420Z,8.30
2022-12-22T03:52:30.546Z,8.30
2022-12-22T03:54:58.595Z,8.40
2022-12-22T03:57:26.747Z,8.40
2022-12-22T03:59:54.878Z,8.30
2022-12-22T04:02:23.069Z,8.40
2022-12-22T04:04:51.195Z,8.40
2022-12-22T04:07:20.647Z,8.40
2022-12-22T04:10:02.653Z,8.40
2022-12-22T04:12:48.074Z,8.40
2022-12-22T04:15:16.332Z,8.40
2022-12-22T04:17:44.475Z,8.40
2022-12-22T04:20:13.113Z,8.40
2022-12-22T04:22:42.533Z,8.40
2022-12-22T04:25:11.862Z,8.40
2022-12-22T04:27:40.051Z,8.40
2022-12-22T04:30:09.123Z,8.40
2022-12-22T04:32:37.214Z,8.40
2022-12-22T04:35:06.097Z,8.40
2022-12-22T04:37:34.224Z,8.40
2022-12-22T04:40:04.289Z,8.40
2022-12-22T04:42:32.386Z,8.40
2022-12-22T04:45:00.412Z,8.50
2022-12-22T04:47:28.510Z,8.50
2022-12-22T04:49:56.591Z,8.40
2022-12-22T04:52:24.935Z,8.30
2022-12-22T04:54:53.021Z,8.40
2022-12-22T04:57:22.461Z,8.40
2022-12-22T04:59:50.547Z,8.40
2022-12-22T05:02:18.828Z,8.40
2022-12-22T05:04:46.997Z,8.40
2022-12-22T05:07:15.243Z,8.40
2022-12-22T05:09:43.346Z,8.40
2022-12-22T05:12:25.317Z,8.40
2022-12-22T05:14:55.005Z,8.40
2022-12-22T05:17:23.115Z,8.40
2022-12-22T05:19:51.148Z,8.40
2022-12-22T05:22:19.260Z,8.40
2022-12-22T05:24:47.352Z,8.40
2022-12-22T05:27:15.515Z,8.40
2022-12-22T05:29:43.641Z,8.40
2022-12-22T05:32:13.129Z,8.40
2022-12-22T05:34:41.190Z,8.40
2022-12-22T05:37:09.305Z,8.30
2022-12-22T05:39:37.416Z,8.40
2022-12-22T05:42:05.766Z,8.40
2022-12-22T05:44:33.840Z,8.40
2022-12-22T05:47:01.876Z,8.40
2022-12-22T05:49:31.330Z,8.40
2022-12-22T05:51:59.425Z,8.40
2022-12-22T05:54:27.787Z,8.40
2022-12-22T05:56:55.845Z,8.40
2022-12-22T05:59:23.959Z,8.40
2022-12-22T06:01:52.268Z,8.40
2022-12-22T06:04:20.684Z,8.40
2022-12-22T06:06:50.149Z,8.40
2022-12-22T06:09:18.386Z,8.40
2022-12-22T06:11:46.554Z,8.40
2022-12-22T06:14:14.554Z,8.40
2022-12-22T06:16:42.632Z,8.40
2022-12-22T06:19:10.710Z,8.40
2022-12-22T06:21:38.831Z,8.40
2022-12-22T06:24:09.078Z,8.40
2022-12-22T06:26:37.309Z,8.40
2022-12-22T06:29:05.507Z,8.40
2022-12-22T06:31:33.645Z,8.40
2022-12-22T06:34:01.831Z,8.30
2022-12-22T06:36:29.954Z,8.40
2022-12-22T06:38:57.999Z,8.40
2022-12-22T06:41:45.006Z,8.40
2022-12-22T06:44:13.231Z,8.40
2022-12-22T06:46:41.469Z,8.40
2022-12-22T06:49:09.635Z,8.40
2022-12-22T06:51:37.796Z,8.40
2022-12-22T06:54:06.266Z,8.40
2022-12-22T06:56:36.021Z,8.40
2022-12-22T06:59:04.368Z,8.40
2022-12-22T07:01:32.986Z,8.40
2022-12-22T07:04:01.380Z,8.40
2022-12-22T07:06:29.540Z,8.50
2022-12-22T07:08:57.754Z,8.40
2022-12-22T07:11:25.864Z,8.40
2022-12-22T07:13:55.447Z,8.40
2022-12-22T07:16:23.658Z,8.50
2022-12-22T07:18:51.858Z,8.40
2022-12-22T07:21:20.024Z,8.50
2022-12-22T07:23:48.315Z,8.50
2022-12-22T07:26:16.783Z,8.40
2022-12-22T07:28:44.905Z,8.50
2022-12-22T07:31:17.090Z,8.50
2022-12-22T07:33:45.227Z,8.40
2022-12-22T07:36:15.839Z,8.50
2022-12-22T07:38:46.729Z,8.40
2022-12-22T07:41:34.431Z,8.50
2022-12-22T07:44:04.151Z,8.40
2022-12-22T07:46:36.643Z,8.50
2022-12-22T07:49:23.246Z,8.50
2022-12-22T07:51:51.491Z,8.40
2022-12-22T07:54:19.914Z,8.50
2022-12-22T07:56:48.419Z,8.40
2022-12-22T07:59:17.281Z,8.40
2022-12-22T08:01:48.076Z,8.50
2022-12-22T08:04:16.743Z,8.50
2022-12-22T08:06:45.135Z,8.50
2022-12-22T08:09:16.368Z,8.50
2022-12-22T08:11:44.962Z,8.50
2022-12-22T08:14:13.082Z,8.50
2022-12-22T08:16:41.304Z,8.50
2022-12-22T08:19:11.186Z,8.50
2022-12-22T08:21:39.256Z,8.50
2022-12-22T08:24:08.749Z,8.50
2022-12-22T08:26:39.202Z,8.50
2022-12-22T08:29:12.289Z,8.50
2022-12-22T08:31:40.940Z,8.50
2022-12-22T08:34:13.733Z,8.50
2022-12-22T08:36:44.896Z,8.50
2022-12-22T08:39:14.441Z,8.50
2022-12-22T08:41:51.482Z,8.50
2022-12-22T08:44:21.838Z,8.50
2022-12-22T08:46:51.078Z,8.60
2022-12-22T08:49:21.198Z,8.70
2022-12-22T08:51:50.128Z,8.60
2022-12-22T08:54:18.824Z,8.50
2022-12-22T08:56:47.423Z,8.60
2022-12-22T08:59:15.581Z,8.60
2022-12-22T09:01:48.139Z,8.60
2022-12-22T09:04:18.158Z,8.60
2022-12-22T09:06:47.552Z,8.70
2022-12-22T09:09:16.743Z,8.70
2022-12-22T09:11:45.901Z,8.70
2022-12-22T09:14:14.247Z,8.70
2022-12-22T09:16:42.484Z,8.80
2022-12-22T09:19:10.676Z,8.80
2022-12-22T09:21:41.905Z,8.80
2022-12-22T09:24:11.613Z,8.80
2022-12-22T09:26:39.767Z,8.80
2022-12-22T09:29:08.084Z,8.80
2022-12-22T09:31:36.301Z,8.80
2022-12-22T09:34:04.546Z,8.90
2022-12-22T09:36:33.755Z,8.90
2022-12-22T09:39:07.031Z,8.90
2022-12-22T09:41:42.896Z,8.90
2022-12-22T09:44:16.595Z,8.90
2022-12-22T09:46:45.055Z,9.00
2022-12-22T09:49:15.663Z,8.90
2022-12-22T09:51:47.508Z,9.00
2022-12-22T09:54:16.466Z,9.00
2022-12-22T09:56:45.982Z,9.00
2022-12-22T09:59:15.720Z,9.00
2022-12-22T10:02:01.476Z,9.10
2022-12-22T10:04:52.993Z,9.00
2022-12-22T10:07:29.569Z,9.00
2022-12-22T10:09:57.704Z,9.00
2022-12-22T10:12:27.566Z,9.00
2022-12-22T10:14:56.780Z,9.00
2022-12-22T10:17:28.205Z,9.00
2022-12-22T10:20:09.724Z,9.00
2022-12-22T10:22:47.188Z,9.00
2022-12-22T10:25:45.283Z,9.00
2022-12-22T10:28:25.325Z,9.00
2022-12-22T10:31:15.899Z,9.00
2022-12-22T10:33:47.450Z,9.10
2022-12-22T10:36:20.857Z,9.00
2022-12-22T10:39:02.012Z,9.10
2022-12-22T10:41:32.961Z,9.10
2022-12-22T10:44:06.083Z,9.10
2022-12-22T10:46:38.527Z,9.10
2022-12-22T10:49:13.290Z,9.00
2022-12-22T10:51:42.879Z,9.00
2022-12-22T10:54:10.971Z,9.10
2022-12-22T10:56:39.126Z,9.00
2022-12-22T10:59:20.179Z,9.00
2022-12-22T11:01:48.747Z,9.00
2022-12-22T11:04:22.795Z,9.00
2022-12-22T11:06:51.479Z,9.20
2022-12-22T11:09:35.749Z,9.00
2022-12-22T11:12:14.563Z,9.00
2022-12-22T11:14:53.783Z,8.90
2022-12-22T11:17:31.855Z,8.90
2022-12-22T11:20:17.774Z,8.90
2022-12-22T11:22:54.602Z,8.80
2022-12-22T11:25:37.458Z,8.80
2022-12-22T11:28:27.608Z,8.80
2022-12-22T11:31:12.683Z,8.70
2022-12-22T11:33:53.075Z,8.70
2022-12-22T11:36:30.877Z,8.70
2022-12-22T11:39:06.291Z,8.60
2022-12-22T11:41:51.212Z,8.60
2022-12-22T11:44:37.374Z,8.60
2022-12-22T11:47:17.739Z,8.60
2022-12-22T11:50:58.491Z,8.50
2022-12-22T11:53:16.122Z,8.60
2022-12-22T11:55:48.431Z,8.60
2022-12-22T11:58:31.196Z,8.60
2022-12-22T12:01:20.537Z,8.60
2022-12-22T12:04:21.741Z,8.60
2022-12-22T12:07:25.140Z,8.60
2022-12-22T12:10:02.998Z,8.60
2022-12-22T12:12:43.618Z,8.60
2022-12-22T12:15:30.839Z,8.70
2022-12-22T12:18:14.424Z,8.60
2022-12-22T12:20:54.636Z,8.70
2022-12-22T12:23:45.683Z,8.70
2022-12-22T12:26:20.287Z,8.70
2022-12-22T12:29:01.928Z,8.70
2022-12-22T12:31:34.586Z,8.70
2022-12-22T12:34:04.189Z,8.70
2022-12-22T12:36:42.837Z,8.70
2022-12-22T12:39:17.765Z,8.70
2022-12-22T12:41:54.480Z,8.80
2022-12-22T12:44:26.500Z,8.80
2022-12-22T12:47:07.664Z,8.80
2022-12-22T12:49:55.721Z,8.80
2022-12-22T12:53:16.396Z,8.80
2022-12-22T12:56:04.167Z,8.80
2022-12-22T12:58:55.633Z,8.80
2022-12-22T13:01:54.873Z,8.80
2022-12-22T13:05:01.699Z,8.80
2022-12-22T13:08:14.176Z,8.80
2022-12-22T13:10:48.848Z,8.80
2022-12-22T13:13:53.399Z,8.80
2022-12-22T13:16:44.231Z,8.90
2022-12-22T13:19:26.444Z,8.90
2022-12-22T13:21:57.800Z,8.80
2022-12-22T13:24:30.479Z,8.90
2022-12-22T13:27:06.698Z,8.90
2022-12-22T13:29:48.486Z,8.80
2022-12-22T13:32:24.775Z,8.90
2022-12-22T13:35:30.430Z,8.90
2022-12-22T13:37:54.585Z,9.00
2022-12-22T13:40:24.794Z,9.00
2022-12-22T13:42:56.026Z,9.00
2022-12-22T13:45:34.178Z,9.00
2022-12-22T13:48:06.872Z,9.00
2022-12-22T13:50:38.412Z,9.00
2022-12-22T13:53:10.047Z,8.90
2022-12-22T13:55:39.173Z,9.00
2022-12-22T13:58:15.825Z,8.90
2022-12-22T14:00:45.439Z,9.00
2022-12-22T14:03:41.777Z,8.90
2022-12-22T14:06:20.814Z,8.80
2022-12-22T14:08:49.081Z,8.80
2022-12-22T14:11:17.360Z,8.80
2022-12-22T14:13:45.877Z,8.80
2022-12-22T14:16:16.029Z,8.70
2022-12-22T14:18:44.222Z,8.70
2022-12-22T14:21:13.292Z,8.70
2022-12-22T14:23:43.205Z,8.60
2022-12-22T14:26:18.361Z,8.60
2022-12-22T14:28:50.541Z,8.50
2022-12-22T14:31:20.735Z,8.50
2022-12-22T14:33:54.200Z,8.50
2022-12-22T14:36:24.424Z,8.40
2022-12-22T14:38:54.135Z,8.40
2022-12-22T14:41:44.418Z,8.40
2022-12-22T14:44:15.887Z,8.30
2022-12-22T14:46:46.850Z,8.30
2022-12-22T14:49:17.782Z,8.20
2022-12-22T14:52:00.792Z,8.20
2022-12-22T14:54:29.976Z,8.20
2022-12-22T14:57:03.461Z,8.20
2022-12-22T14:59:32.440Z,8.10
2022-12-22T15:02:04.771Z,8.10
2022-12-22T15:04:33.029Z,8.10
2022-12-22T15:07:45.717Z,8.10
2022-12-22T15:10:20.940Z,8.10
2022-12-22T15:12:50.637Z,8.00
2022-12-22T15:15:20.733Z,8.00
2022-12-22T15:17:51.929Z,8.00
2022-12-22T15:20:23.277Z,7.90
2022-12-22T15:22:52.025Z,7.90
2022-12-22T15:25:23.169Z,7.90
2022-12-22T15:27:51.963Z,7.90
2022-12-22T15:30:27.807Z,7.90
2022-12-22T15:32:58.045Z,7.90
2022-12-22T15:35:30.258Z,7.90
2022-12-22T15:37:58.347Z,7.90
2022-12-22T15:40:28.113Z,7.90
2022-12-22T15:42:56.233Z,7.90
2022-12-22T15:45:24.601Z,7.90
2022-12-22T15:47:54.491Z,7.80
2022-12-22T15:50:26.800Z,7.90
2022-12-22T15:52:58.039Z,7.90
2022-12-22T15:55:26.632Z,7.90
2022-12-22T15:57:58.112Z,7.80
2022-12-22T16:00:26.687Z,7.90
2022-12-22T16:02:54.892Z,7.90
2022-12-22T16:05:24.521Z,7.90
2022-12-22T16:07:52.598Z,7.90
2022-12-22T16:10:25.646Z,7.90
2022-12-22T16:13:01.470Z,7.80
2022-12-22T16:15:31.700Z,7.90
2022-12-22T16:18:00.292Z,7.90
2022-12-22T16:20:37.595Z,7.80
2022-12-22T16:23:08.196Z,7.90
2022-12-22T16:25:39.363Z,7.80
2022-12-22T16:28:08.009Z,7.90
2022-12-22T16:30:36.402Z,7.90
2022-12-22T16:33:04.488Z,7.90
2022-12-22T16:35:33.975Z,7.90
2022-12-22T16:38:02.068Z,7.90
2022-12-22T16:40:32.142Z,7.90
2022-12-22T16:45:49.312Z,7.90
2022-12-22T16:48:22.878Z,7.90
2022-12-22T16:50:52.326Z,7.90
2022-12-22T16:53:20.356Z,7.90
2022-12-22T16:55:48.395Z,7.90
2022-12-22T16:58:16.499Z,7.90
2022-12-22T17:00:45.992Z,7.90
2022-12-22T17:03:17.119Z,7.90
2022-12-22T17:05:49.130Z,7.90
2022-12-22T17:08:23.600Z,7.90
2022-12-22T17:10:52.934Z,7.90
2022-12-22T17:13:22.235Z,7.80
2022-12-22T17:15:50.423Z,7.90
2022-12-22T17:18:20.703Z,7.90
2022-12-22T17:20:52.164Z,7.90
2022-12-22T17:23:31.572Z,7.90
2022-12-22T17:26:01.873Z,7.90
2022-12-22T17:28:30.290Z,7.90
2022-12-22T17:30:58.497Z,7.90
2022-12-22T17:33:26.627Z,7.80
2022-12-22T17:35:55.466Z,7.90
2022-12-22T17:38:27.187Z,7.80
2022-12-22T17:40:56.881Z,7.80
2022-12-22T17:43:24.984Z,7.80
2022-12-22T17:45:53.990Z,7.80
2022-12-22T17:48:22.195Z,7.80
2022-12-22T17:50:50.663Z,7.80
2022-12-22T17:53:21.223Z,7.80
2022-12-22T17:56:08.901Z,7.80
2022-12-22T17:58:40.572Z,7.80
2022-12-22T18:01:22.033Z,7.70
2022-12-22T18:03:50.601Z,7.80
2022-12-22T18:06:21.243Z,7.80
2022-12-22T18:08:50.212Z,7.80
2022-12-22T18:11:20.502Z,7.70
2022-12-22T18:13:48.908Z,7.70
2022-12-22T18:16:19.870Z,7.70
2022-12-22T18:18:48.750Z,7.70
2022-12-22T18:21:20.738Z,7.70
2022-12-22T18:23:50.977Z,7.70
2022-12-22T18:26:26.540Z,7.70
2022-12-22T18:28:55.960Z,7.60
2022-12-22T18:31:25.444Z,7.70
2022-12-22T18:33:53.823Z,7.70
2022-12-22T18:36:26.906Z,7.70
2022-12-22T18:38:55.213Z,7.70
2022-12-22T18:41:26.884Z,7.70
2022-12-22T18:43:55.204Z,7.60
2022-12-22T18:46:23.318Z,7.60
2022-12-22T18:48:51.604Z,7.70
2022-12-22T18:51:22.029Z,7.60
2022-12-22T18:53:51.982Z,7.60
2022-12-22T18:56:20.501Z,7.60
2022-12-22T18:58:50.163Z,7.60
2022-12-22T19:01:24.068Z,7.60
2022-12-22T19:03:55.399Z,7.60
2022-12-22T19:06:24.196Z,7.60
2022-12-22T19:08:52.809Z,7.60
2022-12-22T19:11:25.287Z,7.60
2022-12-22T19:13:54.793Z,7.60
2022-12-22T19:16:27.678Z,7.60
2022-12-22T19:18:57.108Z,7.60
2022-12-22T19:21:25.270Z,7.50
2022-12-22T19:23:53.391Z,7.50
2022-12-22T19:26:23.615Z,7.50
2022-12-22T19:28:56.847Z,7.50
2022-12-22T19:31:27.397Z,7.50
2022-12-22T19:33:59.059Z,7.40
2022-12-22T19:36:29.669Z,7.40
2022-12-22T19:39:03.789Z,7.40
2022-12-22T19:41:41.240Z,7.40
2022-12-22T19:44:22.320Z,7.40
2022-12-22T19:46:51.419Z,7.40
2022-12-22T19:49:21.744Z,7.40
2022-12-22T19:51:50.358Z,7.40
2022-12-22T19:54:19.360Z,7.40
2022-12-22T19:56:49.653Z,7.40
2022-12-22T19:59:30.953Z,7.40
2022-12-22T20:02:01.401Z,7.40
2022-12-22T20:04:29.688Z,7.40
2022-12-22T20:06:57.758Z,7.40
2022-12-22T20:09:25.876Z,7.40
2022-12-22T20:11:54.008Z,7.40
2022-12-22T20:14:23.549Z,7.40
2022-12-22T20:16:51.707Z,7.40
2022-12-22T20:19:19.819Z,7.40
2022-12-22T20:21:47.904Z,7.40
2022-12-22T20:24:22.221Z,7.40
2022-12-22T20:26:54.618Z,7.40
2022-12-22T20:29:25.945Z,7.40
2022-12-22T20:31:54.147Z,7.40
2022-12-22T20:34:22.480Z,7.30
2022-12-22T20:36:50.602Z,7.40
2022-12-22T20:39:20.464Z,7.30
2022-12-22T20:41:53.513Z,7.30
2022-12-22T20:44:22.940Z,7.40
2022-12-22T20:46:52.641Z,7.40
2022-12-22T20:49:21.104Z,7.30
2022-12-22T20:51:49.425Z,7.30
2022-12-22T20:54:17.956Z,7.40
2022-12-22T20:56:47.531Z,7.30
2022-12-22T20:59:18.470Z,7.40
2022-12-22T21:01:47.489Z,7.40
2022-12-22T21:04:18.406Z,7.30
2022-12-22T21:06:50.672Z,7.40
2022-12-22T21:09:19.159Z,7.30
2022-12-22T21:11:47.267Z,7.30
2022-12-22T21:14:15.591Z,7.40
2022-12-22T21:16:44.130Z,7.30
2022-12-22T21:19:19.418Z,7.30
2022-12-22T21:21:47.683Z,7.30
2022-12-22T21:24:15.744Z,7.30
2022-12-22T21:26:48.253Z,7.30
2022-12-22T21:29:19.947Z,7.30
2022-12-22T21:31:48.041Z,7.30
2022-12-22T21:34:17.559Z,7.30
2022-12-22T21:36:47.810Z,7.30
2022-12-22T21:39:24.039Z,7.30
2022-12-22T21:42:01.025Z,7.30
2022-12-22T21:44:29.964Z,7.30
2022-12-22T21:47:01.360Z,7.30
2022-12-22T21:49:33.299Z,7.30
2022-12-22T21:52:01.728Z,7.30
2022-12-22T21:54:29.923Z,7.30
2022-12-22T21:56:58.224Z,7.30
2022-12-22T21:59:26.442Z,7.30
2022-12-22T22:01:55.666Z,7.30
2022-12-22T22:04:24.743Z,7.30
2022-12-22T22:06:54.199Z,7.30
2022-12-22T22:09:22.292Z,7.30
2022-12-22T22:12:07.703Z,7.30
2022-12-22T22:14:35.967Z,7.30
2022-12-22T22:17:04.115Z,7.30
2022-12-22T22:19:32.231Z,7.30
2022-12-22T22:22:01.767Z,7.30
2022-12-22T22:24:31.923Z,7.30
2022-12-22T22:27:00.088Z,7.30
2022-12-22T22:29:28.107Z,7.30
2022-12-22T22:31:56.142Z,7.30
2022-12-22T22:34:24.202Z,7.30
2022-12-22T22:36:52.267Z,7.30
2022-12-22T22:39:23.195Z,7.30
2022-12-22T22:41:51.517Z,7.30
2022-12-22T22:44:19.954Z,7.30
2022-12-22T22:46:48.111Z,7.30
2022-12-22T22:49:16.264Z,7.30
2022-12-22T22:51:44.520Z,7.30
2022-12-22T22:54:13.080Z,7.30
2022-12-22T22:56:42.613Z,7.30
2022-12-22T22:59:13.182Z,7.30
2022-12-22T23:01:41.927Z,7.30
2022-12-22T23:04:10.187Z,7.30
2022-12-22T23:06:40.578Z,7.30
2022-12-22T23:09:08.793Z,7.30
2022-12-22T23:11:37.052Z,7.30
2022-12-22T23:14:06.635Z,7.20
2022-12-22T23:16:38.290Z,7.20
2022-12-22T23:19:07.155Z,7.30
2022-12-22T23:21:35.454Z,7.30
2022-12-22T23:24:03.713Z,7.20
2022-12-22T23:26:31.822Z,7.20
2022-12-22T23:29:03.666Z,7.30
2022-12-22T23:31:34.369Z,7.30
2022-12-22T23:34:02.620Z,7.30
2022-12-22T23:36:31.431Z,7.20
2022-12-22T23:39:00.008Z,7.30
2022-12-22T23:41:28.280Z,7.30
2022-12-22T23:43:56.990Z,7.30
2022-12-22T23:46:25.291Z,7.30
2022-12-22T23:48:56.417Z,7.30
2022-12-22T23:51:26.638Z,7.30
2022-12-22T23:53:55.832Z,7.30
2022-12-22T23:56:25.274Z,7.30
2022-12-22T23:58:55.119Z,7.20
